Wetterstation Vordersexau
Wetterdaten: Woche 02.09.13 - 08.09.13 (KW36)
Datum Zeit Temp. A. Feuchte A. Luftdruck Regen Wind Richtung Taupunkt Windchill Windben
02.09.2013 00:00 10,3 C 80 % 1025,6 hPa 0,0 l/m 0,0 km/h O-SO 7,0 C 10,3 C 0,0 km/h
02.09.2013 01:00 10,4 C 82 % 1025,8 hPa 0,0 l/m 0,0 km/h SO 7,5 C 10,4 C 0,0 km/h
02.09.2013 02:00 10,3 C 82 % 1025,7 hPa 0,0 l/m 0,0 km/h SO 7,4 C 10,3 C 0,0 km/h
02.09.2013 03:00 10,3 C 82 % 1025,3 hPa 0,0 l/m 0,0 km/h S 7,4 C 10,3 C 0,0 km/h
02.09.2013 04:00 8,9 C 82 % 1024,9 hPa 0,0 l/m 15,6 km/h S-SO 6,0 C 3,5 C 8,6 km/h
02.09.2013 05:00 8,5 C 82 % 1024,9 hPa 0,0 l/m 0,0 km/h S-SO 5,6 C 8,5 C 0,0 km/h
02.09.2013 06:00 9,6 C 80 % 1024,9 hPa 0,0 l/m 0,0 km/h S 6,3 C 9,6 C 0,0 km/h
02.09.2013 07:00 9,9 C 82 % 1024,7 hPa 0,0 l/m 0,0 km/h S 7,0 C 9,9 C 0,0 km/h
02.09.2013 08:00 11,6 C 82 % 1025,2 hPa 0,0 l/m 0,0 km/h SO 8,6 C 11,6 C 0,0 km/h
02.09.2013 09:00 15,2 C 79 % 1025,4 hPa 0,0 l/m 0,0 km/h W 11,6 C 15,2 C 0,0 km/h
02.09.2013 10:00 20,8 C 55 % 1025,7 hPa 0,0 l/m 0,0 km/h S-SW 11,4 C 20,8 C 0,0 km/h
02.09.2013 11:00 24,1 C 46 % 1025,4 hPa 0,0 l/m 9,7 km/h NW 11,7 C 23,2 C 5,4 km/h
02.09.2013 12:00 25,1 C 41 % 1025,2 hPa 0,0 l/m 0,0 km/h SW 10,9 C 25,1 C 0,0 km/h
02.09.2013 13:00 25,1 C 38 % 1024,6 hPa 0,0 l/m 0,0 km/h N-NW 9,8 C 25,1 C 0,0 km/h
02.09.2013 14:00 25,1 C 36 % 1024,2 hPa 0,0 l/m 0,0 km/h W 9,0 C 25,1 C 0,0 km/h
02.09.2013 15:00 28,0 C 31 % 1023,9 hPa 0,0 l/m 13,6 km/h S-SW 9,3 C 27,1 C 7,6 km/h
02.09.2013 16:00 31,8 C 28 % 1023,6 hPa 0,0 l/m 5,2 km/h W 11,0 C 31,8 C 2,9 km/h
02.09.2013 17:00 33,5 C 25 % 1023,4 hPa 0,0 l/m 0,0 km/h SO 10,7 C 33,5 C 0,0 km/h
02.09.2013 18:00 33,5 C 24 % 1023,3 hPa 0,0 l/m 1,9 km/h SW 10,1 C 33,5 C 1,1 km/h
02.09.2013 19:00 28,6 C 33 % 1023,2 hPa 0,0 l/m 0,0 km/h SO 10,7 C 28,6 C 0,0 km/h
02.09.2013 20:00 16,9 C 55 % 1023,8 hPa 0,0 l/m 0,0 km/h O-SO 7,8 C 16,9 C 0,0 km/h
02.09.2013 21:00 13,5 C 66 % 1024,3 hPa 0,0 l/m 0,0 km/h SO 7,3 C 13,5 C 0,0 km/h
02.09.2013 22:00 12,4 C 72 % 1024,8 hPa 0,0 l/m 0,0 km/h O-NO 7,5 C 12,4 C 0,0 km/h
02.09.2013 23:00 11,9 C 76 % 1025,3 hPa 0,0 l/m 0,0 km/h SO 7,8 C 11,9 C 0,0 km/h
03.09.2013 00:00 11,0 C 77 % 1025,5 hPa 0,0 l/m 0,0 km/h O-SO 7,1 C 11,0 C 0,0 km/h
03.09.2013 01:00 10,4 C 80 % 1025,2 hPa 0,0 l/m 0,0 km/h SO 7,1 C 10,4 C 0,0 km/h
03.09.2013 02:00 10,2 C 80 % 1025,2 hPa 0,0 l/m 0,0 km/h SO 6,9 C 10,2 C 0,0 km/h
03.09.2013 03:00 9,9 C 81 % 1025,1 hPa 0,0 l/m 0,0 km/h S-SO 6,8 C 9,9 C 0,0 km/h
03.09.2013 04:00 9,5 C 81 % 1025,0 hPa 0,0 l/m 0,0 km/h O-SO 6,4 C 9,5 C 0,0 km/h
03.09.2013 05:00 8,9 C 82 % 1024,7 hPa 0,0 l/m 0,0 km/h N-NO 6,0 C 8,9 C 0,0 km/h
03.09.2013 06:00 9,3 C 82 % 1025,1 hPa 0,0 l/m 0,6 km/h O-NO 6,4 C 9,3 C 0,4 km/h
03.09.2013 07:00 8,8 C 82 % 1025,2 hPa 0,0 l/m 0,0 km/h N-NO 5,9 C 8,8 C 0,0 km/h
03.09.2013 08:00 10,5 C 81 % 1025,3 hPa 0,0 l/m 0,0 km/h W-NW 7,4 C 10,5 C 0,0 km/h
03.09.2013 09:00 18,5 C 69 % 1025,5 hPa 0,0 l/m 0,0 km/h W-NW 12,7 C 18,5 C 0,0 km/h
03.09.2013 10:00 23,4 C 52 % 1025,5 hPa 0,0 l/m 3,2 km/h NW 13,0 C 23,4 C 1,8 km/h
03.09.2013 11:00 26,4 C 47 % 1025,1 hPa 0,0 l/m 0,0 km/h NW 14,2 C 26,4 C 0,0 km/h
03.09.2013 12:00 27,9 C 45 % 1024,6 hPa 0,0 l/m 0,0 km/h W-NW 14,8 C 27,9 C 0,0 km/h
03.09.2013 13:00 27,6 C 48 % 1024,2 hPa 0,0 l/m 21,4 km/h W-NW 15,6 C 25,9 C 11,9 km/h
03.09.2013 14:00 28,1 C 47 % 1023,7 hPa 0,0 l/m 19,4 km/h NW 15,7 C 26,7 C 10,8 km/h
03.09.2013 15:00 30,9 C 43 % 1023,3 hPa 0,0 l/m 7,1 km/h W-NW 16,8 C 30,9 C 4,0 km/h
03.09.2013 16:00 32,9 C 40 % 1022,6 hPa 0,0 l/m 4,5 km/h N-NW 17,5 C 32,9 C 2,5 km/h
03.09.2013 17:00 33,5 C 38 % 1022,3 hPa 0,0 l/m 0,0 km/h N 17,2 C 33,5 C 0,0 km/h
03.09.2013 18:00 33,1 C 40 % 1021,9 hPa 0,0 l/m 0,0 km/h N-NO 17,7 C 33,1 C 0,0 km/h
03.09.2013 19:00 29,7 C 44 % 1021,8 hPa 0,0 l/m 3,9 km/h NO 16,1 C 29,7 C 2,2 km/h
03.09.2013 20:00 20,9 C 66 % 1022,1 hPa 0,0 l/m 0,0 km/h SO 14,3 C 20,9 C 0,0 km/h
03.09.2013 21:00 17,8 C 77 % 1022,4 hPa 0,0 l/m 0,0 km/h O-NO 13,7 C 17,8 C 0,0 km/h
03.09.2013 22:00 15,9 C 80 % 1022,6 hPa 0,0 l/m 0,0 km/h NO 12,5 C 15,9 C 0,0 km/h
03.09.2013 23:00 14,6 C 81 % 1022,6 hPa 0,0 l/m 0,0 km/h O-SO 11,4 C 14,6 C 0,0 km/h
04.09.2013 00:00 13,4 C 81 % 1022,5 hPa 0,0 l/m 0,0 km/h O-SO 10,2 C 13,4 C 0,0 km/h
04.09.2013 01:00 12,8 C 81 % 1022,3 hPa 0,0 l/m 0,0 km/h SO 9,6 C 12,8 C 0,0 km/h
04.09.2013 02:00 12,0 C 80 % 1022,1 hPa 0,0 l/m 0,0 km/h SO 8,7 C 12,0 C 0,0 km/h
04.09.2013 03:00 11,4 C 80 % 1022,0 hPa 0,0 l/m 0,0 km/h O 8,1 C 11,4 C 0,0 km/h
04.09.2013 04:00 11,9 C 78 % 1021,6 hPa 0,0 l/m 0,0 km/h O-SO 8,2 C 11,9 C 0,0 km/h
04.09.2013 05:00 12,1 C 76 % 1021,5 hPa 0,0 l/m 0,0 km/h O-SO 8,0 C 12,1 C 0,0 km/h
04.09.2013 06:00 11,6 C 76 % 1021,2 hPa 0,0 l/m 0,0 km/h N-NO 7,5 C 11,6 C 0,0 km/h
04.09.2013 07:00 11,3 C 75 % 1021,4 hPa 0,0 l/m 0,0 km/h N 7,0 C 11,3 C 0,0 km/h
04.09.2013 08:00 13,1 C 71 % 1021,2 hPa 0,0 l/m 0,0 km/h N 8,0 C 13,1 C 0,0 km/h
04.09.2013 09:00 20,8 C 80 % 1021,5 hPa 0,0 l/m 0,0 km/h W-NW 17,2 C 20,8 C 0,0 km/h
04.09.2013 10:00 26,4 C 59 % 1021,4 hPa 0,0 l/m 0,0 km/h O-SO 17,7 C 26,4 C 0,0 km/h
04.09.2013 11:00 29,1 C 51 % 1021,1 hPa 0,0 l/m 0,0 km/h W 17,9 C 29,1 C 0,0 km/h
04.09.2013 12:00 30,2 C 48 % 1020,5 hPa 0,0 l/m 0,0 km/h N 17,9 C 30,2 C 0,0 km/h
04.09.2013 13:00 30,6 C 44 % 1019,7 hPa 0,0 l/m 0,0 km/h W 16,9 C 30,6 C 0,0 km/h
04.09.2013 14:00 30,6 C 45 % 1019,1 hPa 0,0 l/m 2,6 km/h W-SW 17,3 C 30,6 C 1,4 km/h
04.09.2013 15:00 33,4 C 44 % 1018,3 hPa 0,0 l/m 1,9 km/h W 19,4 C 33,4 C 1,1 km/h
04.09.2013 16:00 35,1 C 39 % 1017,8 hPa 0,0 l/m 0,0 km/h W 19,0 C 35,1 C 0,0 km/h
04.09.2013 17:00 34,5 C 40 % 1017,3 hPa 0,0 l/m 1,9 km/h N-NO 18,9 C 34,5 C 1,1 km/h
04.09.2013 18:00 34,6 C 39 % 1016,8 hPa 0,0 l/m 0,0 km/h NW 18,6 C 34,6 C 0,0 km/h
04.09.2013 19:00 32,2 C 42 % 1016,6 hPa 0,0 l/m 0,0 km/h O-SO 17,6 C 32,2 C 0,0 km/h
04.09.2013 20:00 21,9 C 67 % 1016,7 hPa 0,0 l/m 0,0 km/h NO 15,5 C 21,9 C 0,0 km/h
04.09.2013 21:00 19,6 C 76 % 1016,8 hPa 0,0 l/m 0,0 km/h NO 15,2 C 19,6 C 0,0 km/h
04.09.2013 22:00 17,9 C 80 % 1016,7 hPa 0,0 l/m 0,0 km/h NO 14,4 C 17,9 C 0,0 km/h
04.09.2013 23:00 16,8 C 81 % 1016,6 hPa 0,0 l/m 0,0 km/h NO 13,5 C 16,8 C 0,0 km/h
05.09.2013 00:00 15,8 C 80 % 1016,6 hPa 0,0 l/m 0,0 km/h NO 12,4 C 15,8 C 0,0 km/h
05.09.2013 01:00 15,8 C 78 % 1016,6 hPa 0,0 l/m 0,0 km/h O 12,0 C 15,8 C 0,0 km/h
05.09.2013 02:00 15,4 C 77 % 1016,1 hPa 0,0 l/m 0,0 km/h SO 11,4 C 15,4 C 0,0 km/h
05.09.2013 03:00 14,5 C 77 % 1016,0 hPa 0,0 l/m 0,0 km/h O-NO 10,5 C 14,5 C 0,0 km/h
05.09.2013 04:00 13,8 C 76 % 1015,5 hPa 0,0 l/m 0,0 km/h O-NO 9,6 C 13,8 C 0,0 km/h
05.09.2013 05:00 13,4 C 74 % 1015,5 hPa 0,0 l/m 0,0 km/h O-NO 8,9 C 13,4 C 0,0 km/h
05.09.2013 06:00 12,9 C 73 % 1014,9 hPa 0,0 l/m 0,0 km/h O-NO 8,2 C 12,9 C 0,0 km/h
05.09.2013 07:00 12,6 C 72 % 1014,7 hPa 0,0 l/m 0,0 km/h O-NO 7,7 C 12,6 C 0,0 km/h
05.09.2013 08:00 14,3 C 68 % 1014,9 hPa 0,0 l/m 0,0 km/h SO 8,5 C 14,3 C 0,0 km/h
05.09.2013 09:00 22,6 C 79 % 1014,7 hPa 0,0 l/m 0,0 km/h O-SO 18,8 C 22,6 C 0,0 km/h
05.09.2013 10:00 29,2 C 51 % 1014,5 hPa 0,0 l/m 0,0 km/h W 18,0 C 29,2 C 0,0 km/h
05.09.2013 11:00 31,9 C 44 % 1014,1 hPa 0,0 l/m 0,0 km/h W-SW 18,1 C 31,9 C 0,0 km/h
05.09.2013 12:00 32,7 C 41 % 1013,6 hPa 0,0 l/m 0,0 km/h N-NW 17,7 C 32,7 C 0,0 km/h
05.09.2013 13:00 32,8 C 42 % 1013,1 hPa 0,0 l/m 0,0 km/h W-SW 18,2 C 32,8 C 0,0 km/h
05.09.2013 14:00 32,6 C 41 % 1012,8 hPa 0,0 l/m 8,4 km/h W-SW 17,6 C 32,6 C 4,7 km/h
05.09.2013 15:00 35,8 C 36 % 1012,3 hPa 0,0 l/m 4,5 km/h W-SW 18,4 C 35,8 C 2,5 km/h
05.09.2013 16:00 39,3 C 30 % 1011,4 hPa 0,0 l/m 0,0 km/h N-NW 18,5 C 39,3 C 0,0 km/h
05.09.2013 17:00 38,9 C 30 % 1011,0 hPa 0,0 l/m 0,0 km/h N 18,1 C 38,9 C 0,0 km/h
05.09.2013 18:00 39,6 C 28 % 1010,5 hPa 0,0 l/m 1,3 km/h N-NO 17,6 C 39,6 C 0,7 km/h
05.09.2013 19:00 34,9 C 37 % 1010,2 hPa 0,0 l/m 0,0 km/h NO 18,0 C 34,9 C 0,0 km/h
05.09.2013 20:00 23,0 C 60 % 1010,3 hPa 0,0 l/m 0,0 km/h NO 14,8 C 23,0 C 0,0 km/h
05.09.2013 21:00 20,3 C 71 % 1010,6 hPa 0,0 l/m 0,0 km/h O-SO 14,9 C 20,3 C 0,0 km/h
05.09.2013 22:00 19,6 C 73 % 1010,4 hPa 0,0 l/m 1,9 km/h S-SO 14,6 C 19,6 C 1,1 km/h
05.09.2013 23:00 18,8 C 75 % 1010,2 hPa 0,0 l/m 0,0 km/h SO 14,3 C 18,8 C 0,0 km/h
06.09.2013 00:00 17,2 C 78 % 1010,2 hPa 0,0 l/m 0,0 km/h NO 13,3 C 17,2 C 0,0 km/h
06.09.2013 01:00 16,2 C 80 % 1009,9 hPa 0,0 l/m 0,0 km/h O-NO 12,7 C 16,2 C 0,0 km/h
06.09.2013 02:00 15,8 C 80 % 1009,6 hPa 0,0 l/m 0,0 km/h NO 12,4 C 15,8 C 0,0 km/h
06.09.2013 03:00 15,3 C 80 % 1009,6 hPa 0,0 l/m 0,0 km/h NO 11,9 C 15,3 C 0,0 km/h
06.09.2013 04:00 15,2 C 80 % 1009,0 hPa 0,0 l/m 0,0 km/h O-NO 11,8 C 15,2 C 0,0 km/h
06.09.2013 05:00 15,4 C 79 % 1008,9 hPa 0,0 l/m 0,0 km/h NO 11,8 C 15,4 C 0,0 km/h
06.09.2013 06:00 14,2 C 79 % 1008,9 hPa 0,0 l/m 0,0 km/h N-NO 10,6 C 14,2 C 0,0 km/h
06.09.2013 07:00 14,6 C 76 % 1009,2 hPa 0,0 l/m 0,0 km/h SO 10,4 C 14,6 C 0,0 km/h
06.09.2013 08:00 16,4 C 76 % 1009,8 hPa 0,0 l/m 0,0 km/h SO 12,2 C 16,4 C 0,0 km/h
06.09.2013 09:00 23,8 C 71 % 1009,7 hPa 0,0 l/m 0,0 km/h SO 18,2 C 23,8 C 0,0 km/h
06.09.2013 10:00 28,6 C 55 % 1009,8 hPa 0,0 l/m 0,6 km/h W 18,7 C 28,6 C 0,4 km/h
06.09.2013 11:00 31,7 C 40 % 1009,7 hPa 0,0 l/m 22,7 km/h W-SW 16,4 C 31,3 C 12,6 km/h
06.09.2013 12:00 32,6 C 34 % 1009,7 hPa 0,0 l/m 7,1 km/h S 14,7 C 32,6 C 4,0 km/h
06.09.2013 13:00 29,2 C 42 % 1009,6 hPa 0,0 l/m 16,2 km/h W 14,9 C 28,3 C 9,0 km/h
06.09.2013 14:00 32,1 C 36 % 1009,5 hPa 0,0 l/m 5,2 km/h W-SW 15,1 C 32,1 C 2,9 km/h
06.09.2013 15:00 30,8 C 36 % 1009,2 hPa 0,0 l/m 24,0 km/h SW 14,0 C 30,0 C 13,3 km/h
06.09.2013 16:00 35,3 C 30 % 1008,9 hPa 0,0 l/m 3,2 km/h S 15,0 C 35,3 C 1,8 km/h
06.09.2013 17:00 36,2 C 29 % 1008,9 hPa 0,0 l/m 0,0 km/h W 15,3 C 36,2 C 0,0 km/h
06.09.2013 18:00 32,7 C 35 % 1008,9 hPa 0,0 l/m 1,9 km/h N-NW 15,2 C 32,7 C 1,1 km/h
06.09.2013 19:00 29,8 C 43 % 1009,4 hPa 0,0 l/m 0,0 km/h N-NO 15,8 C 29,8 C 0,0 km/h
06.09.2013 20:00 22,1 C 63 % 1009,7 hPa 0,0 l/m 0,0 km/h O-NO 14,7 C 22,1 C 0,0 km/h
06.09.2013 21:00 20,2 C 69 % 1010,2 hPa 0,0 l/m 0,0 km/h O-NO 14,3 C 20,2 C 0,0 km/h
06.09.2013 22:00 19,8 C 72 % 1010,5 hPa 0,0 l/m 0,0 km/h SO 14,6 C 19,8 C 0,0 km/h
06.09.2013 23:00 20,2 C 70 % 1010,8 hPa 0,0 l/m 0,0 km/h SO 14,5 C 20,2 C 0,0 km/h
07.09.2013 00:00 20,0 C 71 % 1010,9 hPa 0,0 l/m 5,8 km/h NO 14,6 C 20,0 C 3,2 km/h
07.09.2013 01:00 19,2 C 74 % 1010,8 hPa 0,0 l/m 0,0 km/h S-SO 14,4 C 19,2 C 0,0 km/h
07.09.2013 02:00 18,8 C 75 % 1011,8 hPa 0,0 l/m 0,0 km/h O-NO 14,3 C 18,8 C 0,0 km/h
07.09.2013 03:00 17,8 C 79 % 1012,8 hPa 1,0 l/m 0,0 km/h O-SO 14,1 C 17,8 C 0,0 km/h
07.09.2013 04:00 17,2 C 80 % 1013,3 hPa 0,0 l/m 0,0 km/h O-NO 13,7 C 17,2 C 0,0 km/h
07.09.2013 05:00 17,2 C 78 % 1013,8 hPa 0,0 l/m 0,0 km/h O-SO 13,3 C 17,2 C 0,0 km/h
07.09.2013 06:00 17,2 C 77 % 1014,2 hPa 0,5 l/m 0,0 km/h SO 13,1 C 17,2 C 0,0 km/h
07.09.2013 07:00 17,1 C 74 % 1014,3 hPa 0,5 l/m 0,0 km/h O-SO 12,4 C 17,1 C 0,0 km/h
07.09.2013 08:00 17,8 C 73 % 1014,6 hPa 0,0 l/m 0,0 km/h O-SO 12,9 C 17,8 C 0,0 km/h
07.09.2013 09:00 18,4 C 73 % 1015,2 hPa 0,0 l/m 0,0 km/h N-NO 13,5 C 18,4 C 0,0 km/h
07.09.2013 10:00 22,1 C 79 % 1016,0 hPa 0,0 l/m 0,0 km/h N-NO 18,3 C 22,1 C 0,0 km/h
07.09.2013 11:00 27,9 C 64 % 1015,4 hPa 0,0 l/m 0,0 km/h NW 20,4 C 27,9 C 0,0 km/h
07.09.2013 12:00 29,6 C 52 % 1015,3 hPa 0,0 l/m 5,2 km/h SW 18,7 C 29,6 C 2,9 km/h
07.09.2013 13:00 28,9 C 53 % 1015,1 hPa 0,0 l/m 0,0 km/h NW 18,3 C 28,9 C 0,0 km/h
07.09.2013 14:00 28,9 C 52 % 1015,0 hPa 0,0 l/m 0,0 km/h NW 18,0 C 28,9 C 0,0 km/h
07.09.2013 15:00 27,3 C 55 % 1014,6 hPa 0,0 l/m 3,2 km/h NW 17,4 C 27,3 C 1,8 km/h
07.09.2013 16:00 24,2 C 66 % 1014,9 hPa 0,0 l/m 7,8 km/h W 17,4 C 23,8 C 4,3 km/h
07.09.2013 17:00 28,1 C 61 % 1015,2 hPa 0,0 l/m 1,3 km/h N 19,9 C 28,1 C 0,7 km/h
07.09.2013 18:00 22,4 C 71 % 1014,8 hPa 0,5 l/m 0,0 km/h S-SO 16,9 C 22,4 C 0,0 km/h
07.09.2013 19:00 23,5 C 72 % 1014,7 hPa 0,5 l/m 0,0 km/h N 18,2 C 23,5 C 0,0 km/h
07.09.2013 20:00 19,2 C 79 % 1014,4 hPa 0,0 l/m 0,0 km/h N-NO 15,5 C 19,2 C 0,0 km/h
07.09.2013 21:00 18,4 C 79 % 1014,0 hPa 0,0 l/m 0,0 km/h O 14,7 C 18,4 C 0,0 km/h
07.09.2013 22:00 18,1 C 77 % 1013,4 hPa 0,0 l/m 0,0 km/h O 14,0 C 18,1 C 0,0 km/h
07.09.2013 23:00 18,1 C 76 % 1012,6 hPa 0,0 l/m 0,0 km/h S-SW 13,8 C 18,1 C 0,0 km/h
08.09.2013 00:00 17,8 C 71 % 1012,0 hPa 0,0 l/m 1,9 km/h S-SO 12,5 C 17,8 C 1,1 km/h
08.09.2013 01:00 15,5 C 71 % 1015,9 hPa 7,8 l/m 2,6 km/h O 10,3 C 15,5 C 1,4 km/h
08.09.2013 02:00 15,5 C 69 % 1015,4 hPa 0,5 l/m 0,0 km/h N-NO 9,8 C 15,5 C 0,0 km/h
08.09.2013 03:00 15,5 C 66 % 1014,8 hPa 0,0 l/m 0,0 km/h O 9,2 C 15,5 C 0,0 km/h
08.09.2013 04:00 15,5 C 64 % 1014,7 hPa 0,0 l/m 0,0 km/h SO 8,7 C 15,5 C 0,0 km/h
08.09.2013 05:00 15,3 C 63 % 1014,7 hPa 0,0 l/m 0,0 km/h SO 8,3 C 15,3 C 0,0 km/h
08.09.2013 06:00 15,3 C 62 % 1014,9 hPa 0,5 l/m 0,0 km/h SO 8,1 C 15,3 C 0,0 km/h
08.09.2013 07:00 15,3 C 59 % 1015,4 hPa 0,5 l/m 0,0 km/h S 7,3 C 15,3 C 0,0 km/h
08.09.2013 08:00 16,9 C 62 % 1016,1 hPa 0,0 l/m 0,0 km/h S-SW 9,6 C 16,9 C 0,0 km/h
08.09.2013 09:00 18,2 C 81 % 1016,6 hPa 0,0 l/m 9,1 km/h S 14,9 C 17,0 C 5,0 km/h
08.09.2013 10:00 21,3 C 73 % 1017,0 hPa 0,0 l/m 7,1 km/h W-SW 16,3 C 21,0 C 4,0 km/h
08.09.2013 11:00 21,8 C 69 % 1016,8 hPa 0,0 l/m 1,9 km/h S-SW 15,9 C 21,8 C 1,1 km/h
08.09.2013 12:00 20,8 C 73 % 1017,1 hPa 0,0 l/m 5,2 km/h W-SW 15,8 C 20,8 C 2,9 km/h
08.09.2013 13:00 24,3 C 64 % 1016,7 hPa 0,0 l/m 13,0 km/h SW 17,0 C 22,8 C 7,2 km/h
08.09.2013 14:00 24,6 C 60 % 1016,6 hPa 0,0 l/m 7,8 km/h O-NO 16,3 C 24,2 C 4,3 km/h
08.09.2013 15:00 24,6 C 61 % 1016,6 hPa 0,0 l/m 19,4 km/h N-NO 16,6 C 22,2 C 10,8 km/h
08.09.2013 16:00 22,1 C 68 % 1016,8 hPa 0,0 l/m 3,9 km/h NO 15,9 C 22,1 C 2,2 km/h
08.09.2013 17:00 20,1 C 70 % 1016,2 hPa 0,0 l/m 3,9 km/h N 14,5 C 20,1 C 2,2 km/h
08.09.2013 18:00 17,6 C 77 % 1016,5 hPa 0,0 l/m 1,9 km/h N-NO 13,5 C 17,6 C 1,1 km/h
08.09.2013 19:00 15,8 C 81 % 1016,7 hPa 0,0 l/m 1,3 km/h N-NO 12,5 C 15,8 C 0,7 km/h
08.09.2013 20:00 14,7 C 81 % 1017,3 hPa 1,6 l/m 0,0 km/h N-NO 11,5 C 14,7 C 0,0 km/h
08.09.2013 21:00 14,4 C 79 % 1017,8 hPa 1,0 l/m 0,0 km/h W-SW 10,8 C 14,4 C 0,0 km/h
08.09.2013 22:00 14,2 C 75 % 1018,1 hPa 3,1 l/m 4,5 km/h W 9,8 C 14,2 C 2,5 km/h
08.09.2013 23:00 13,9 C 70 % 1018,0 hPa 1,6 l/m 0,0 km/h W 8,5 C 13,9 C 0,0 km/h
Min-Datum _ 02.09.13 02.09.13 06.09.13 - 02.09.13 - 02.09.13 02.09.13 02.09.13
_ Min-Zeit 05:19 18:19 05:19 - 00:19 - 05:19 04:19 00:19
Minimum _ 8,5 C 24 % 1008,9 hPa - 0,0 km/h - 5,6 C 3,5 C 0,0 km/h
Max-Datum _ 05.09.13 02.09.13 02.09.13 08.09.13 06.09.13 - 07.09.13 05.09.13 06.09.13
_ Max-Zeit 18:19 01:19 01:19 01:19 15:19 - 11:19 18:19 15:19
Maximum _ 39,6 C 82 % 1025,8 hPa 7,8 l/m 24,0 km/h
SW
- 20,4 C 39,6 C 13,3 km/h
SW
Durchschnitt _ 21,0 C 64 % 1017,4 hPa #19,7 l/m 1,9 km/h SO 13,0 C 20,9 C 1,0 km/h
www.sexauwetter.de